Airfield :
LOGIN :

Register | Disclaimer

   EN    FR    IT 

 










Legend :    VFR   Marginal VFR   IFR   Intensive IFR   Very Intensive IFR
Visi :
Ceiling :
>= 8 km
>= 3000ft
5 to 8 km
1000 to 3000 ft
1500m to 5 km
500 to 1000 ft
800 to 1500m
200 to 500 ft
< 800m
< 200 ft
Symbols :   Thunderstorms  Fog  Heavy snow  Heavy precipitations  Wind > 20 kt
SIGMETs :     Misc.  Thunderstorms  Icing  Turbulence  Mountain Waves  Volcanic Ashes






- Airport Elevation : 1682 ft
- IATA code : VIT


LEVT - Vitoria Gasteiz

CURRENT METAR :
  • 250000Z 29004KT 9000 NSC 03/01 Q1021

EXPIRED METARs :
  • 242330Z 36003KT 330V060 6000 NSC 04/02 Q1021
  • 242300Z 02002KT 6000 NSC 05/03 Q1022
  • 242230Z 03005KT 6000 NSC 04/02 Q1022
  • 242200Z 06005KT 6000 NSC 05/03 Q1023
  • 242130Z 12003KT CAVOK 06/02 Q1023

TAF TAF LEVT
Valid from the 25 at 00:00 until the 26 at 00:00 UTC


242300Z 2500/2524 VRB03KT 6000 NSC TX12/2514Z TNM02/2504Z
BECMG 2511/2514 33010KT
PROB40
TEMPO 2500/2509 0350 FG FZFG VV001
PROB40
TEMPO 2500/2509 3000 BR BKN005
PROB40
TEMPO 2506/2518 3000 -RADZ BKN010 BKN014



MET'MAP, your aeronautical weather chart ! - Copyright ORBIFLY December 2007 - Disclaimer

ORBIFLY MET'MAP TEAM :

Programming & Development : Alexandra Zaïnal
Concept & original design : Baudouin d'Aumeries
Assistance for programming : Marc-Olivier Méhu
Technical & hardware support : Manuel Goepfert

Contact : metmap@orbifly.com




SOURCES & CREDITS :

   NOAA